sensor_id;sensor_type;location;lat;lon;timestamp;P1;durP1;ratioP1;P2;durP2;ratioP2
78484;SDS011;67773;50.806;8.776;2023-03-30T00:00:57;5.95;;;2.92;;
78484;SDS011;67773;50.806;8.776;2023-03-30T00:03:22;4.35;;;2.90;;
78484;SDS011;67773;50.806;8.776;2023-03-30T00:05:51;4.47;;;2.45;;
78484;SDS011;67773;50.806;8.776;2023-03-30T00:08:16;6.07;;;2.65;;
78484;SDS011;67773;50.806;8.776;2023-03-30T00:10:43;5.10;;;2.53;;
78484;SDS011;67773;50.806;8.776;2023-03-30T00:13:09;3.63;;;2.65;;
78484;SDS011;67773;50.806;8.776;2023-03-30T00:15:35;5.82;;;3.20;;
78484;SDS011;67773;50.806;8.776;2023-03-30T00:18:01;6.45;;;3.13;;
78484;SDS011;67773;50.806;8.776;2023-03-30T00:20:27;5.20;;;2.95;;
78484;SDS011;67773;50.806;8.776;2023-03-30T00:22:56;6.38;;;3.60;;
78484;SDS011;67773;50.806;8.776;2023-03-30T00:25:22;6.90;;;3.40;;
78484;SDS011;67773;50.806;8.776;2023-03-30T00:27:47;6.30;;;2.97;;
78484;SDS011;67773;50.806;8.776;2023-03-30T00:30:13;6.78;;;3.03;;
78484;SDS011;67773;50.806;8.776;2023-03-30T00:32:41;5.63;;;3.00;;
78484;SDS011;67773;50.806;8.776;2023-03-30T00:35:07;6.55;;;3.00;;
78484;SDS011;67773;50.806;8.776;2023-03-30T00:37:34;3.55;;;2.78;;
78484;SDS011;67773;50.806;8.776;2023-03-30T00:40:02;6.03;;;3.28;;
78484;SDS011;67773;50.806;8.776;2023-03-30T00:42:32;5.60;;;2.78;;
78484;SDS011;67773;50.806;8.776;2023-03-30T00:45:17;4.85;;;3.17;;
78484;SDS011;67773;50.806;8.776;2023-03-30T00:48:02;5.80;;;2.70;;
78484;SDS011;67773;50.806;8.776;2023-03-30T00:50:36;4.05;;;2.50;;
78484;SDS011;67773;50.806;8.776;2023-03-30T00:53:11;4.82;;;2.88;;
78484;SDS011;67773;50.806;8.776;2023-03-30T00:55:40;4.95;;;3.13;;
78484;SDS011;67773;50.806;8.776;2023-03-30T00:58:07;7.30;;;3.17;;
78484;SDS011;67773;50.806;8.776;2023-03-30T01:00:34;5.35;;;3.20;;
78484;SDS011;67773;50.806;8.776;2023-03-30T01:03:03;5.30;;;2.70;;
78484;SDS011;67773;50.806;8.776;2023-03-30T01:05:35;6.82;;;3.70;;
78484;SDS011;67773;50.806;8.776;2023-03-30T01:08:02;5.28;;;3.10;;
78484;SDS011;67773;50.806;8.776;2023-03-30T01:10:32;4.53;;;2.97;;
78484;SDS011;67773;50.806;8.776;2023-03-30T01:12:58;6.72;;;3.55;;
78484;SDS011;67773;50.806;8.776;2023-03-30T01:15:24;6.07;;;3.15;;
78484;SDS011;67773;50.806;8.776;2023-03-30T01:18:07;5.38;;;2.90;;
78484;SDS011;67773;50.806;8.776;2023-03-30T01:23:58;5.45;;;2.88;;
78484;SDS011;67773;50.806;8.776;2023-03-30T01:29:16;7.60;;;3.47;;
78484;SDS011;67773;50.806;8.776;2023-03-30T01:32:23;5.75;;;2.90;;
78484;SDS011;67773;50.806;8.776;2023-03-30T01:38:00;3.97;;;2.53;;
78484;SDS011;67773;50.806;8.776;2023-03-30T01:40:46;6.03;;;3.60;;
78484;SDS011;67773;50.806;8.776;2023-03-30T01:43:31;5.85;;;3.25;;
78484;SDS011;67773;50.806;8.776;2023-03-30T01:46:15;4.22;;;2.92;;
78484;SDS011;67773;50.806;8.776;2023-03-30T01:48:50;4.25;;;3.00;;
78484;SDS011;67773;50.806;8.776;2023-03-30T01:51:28;4.45;;;2.83;;
78484;SDS011;67773;50.806;8.776;2023-03-30T01:54:06;4.97;;;3.08;;
78484;SDS011;67773;50.806;8.776;2023-03-30T01:56:40;5.25;;;2.80;;
78484;SDS011;67773;50.806;8.776;2023-03-30T01:59:17;6.03;;;3.28;;
78484;SDS011;67773;50.806;8.776;2023-03-30T02:01:49;6.75;;;3.53;;
78484;SDS011;67773;50.806;8.776;2023-03-30T02:04:18;8.30;;;4.97;;
78484;SDS011;67773;50.806;8.776;2023-03-30T02:06:49;9.40;;;3.63;;
78484;SDS011;67773;50.806;8.776;2023-03-30T02:09:19;5.47;;;3.00;;
78484;SDS011;67773;50.806;8.776;2023-03-30T02:11:48;6.18;;;3.67;;
78484;SDS011;67773;50.806;8.776;2023-03-30T02:14:15;6.72;;;3.97;;
78484;SDS011;67773;50.806;8.776;2023-03-30T02:16:44;5.78;;;3.03;;
78484;SDS011;67773;50.806;8.776;2023-03-30T02:19:11;4.55;;;2.78;;
78484;SDS011;67773;50.806;8.776;2023-03-30T02:21:37;7.15;;;3.22;;
78484;SDS011;67773;50.806;8.776;2023-03-30T02:24:03;7.00;;;3.50;;
78484;SDS011;67773;50.806;8.776;2023-03-30T02:26:32;4.68;;;3.15;;
78484;SDS011;67773;50.806;8.776;2023-03-30T02:29:00;5.00;;;3.30;;
78484;SDS011;67773;50.806;8.776;2023-03-30T02:31:26;5.30;;;3.20;;
78484;SDS011;67773;50.806;8.776;2023-03-30T02:39:22;7.55;;;3.65;;
78484;SDS011;67773;50.806;8.776;2023-03-30T02:42:08;7.55;;;3.65;;
78484;SDS011;67773;50.806;8.776;2023-03-30T02:44:42;6.22;;;3.83;;
78484;SDS011;67773;50.806;8.776;2023-03-30T02:50:04;7.63;;;3.50;;
78484;SDS011;67773;50.806;8.776;2023-03-30T02:53:12;7.82;;;3.42;;
78484;SDS011;67773;50.806;8.776;2023-03-30T02:58:17;8.05;;;3.50;;
78484;SDS011;67773;50.806;8.776;2023-03-30T03:00:58;8.90;;;3.88;;
78484;SDS011;67773;50.806;8.776;2023-03-30T03:03:35;6.22;;;3.80;;
78484;SDS011;67773;50.806;8.776;2023-03-30T03:06:05;7.03;;;3.88;;
78484;SDS011;67773;50.806;8.776;2023-03-30T03:08:37;9.32;;;4.60;;
78484;SDS011;67773;50.806;8.776;2023-03-30T03:11:05;9.45;;;4.93;;
78484;SDS011;67773;50.806;8.776;2023-03-30T03:13:33;6.05;;;3.95;;
78484;SDS011;67773;50.806;8.776;2023-03-30T03:16:01;12.02;;;5.65;;
78484;SDS011;67773;50.806;8.776;2023-03-30T03:18:27;8.10;;;3.72;;
78484;SDS011;67773;50.806;8.776;2023-03-30T03:20:52;10.73;;;4.23;;
78484;SDS011;67773;50.806;8.776;2023-03-30T03:23:18;8.87;;;4.40;;
78484;SDS011;67773;50.806;8.776;2023-03-30T03:25:43;7.37;;;4.00;;
78484;SDS011;67773;50.806;8.776;2023-03-30T03:28:08;6.23;;;3.50;;
78484;SDS011;67773;50.806;8.776;2023-03-30T03:30:34;7.27;;;3.90;;
78484;SDS011;67773;50.806;8.776;2023-03-30T03:32:59;6.63;;;3.70;;
78484;SDS011;67773;50.806;8.776;2023-03-30T03:35:25;8.82;;;3.83;;
78484;SDS011;67773;50.806;8.776;2023-03-30T03:37:51;8.73;;;4.07;;
78484;SDS011;67773;50.806;8.776;2023-03-30T03:40:16;13.77;;;5.07;;
78484;SDS011;67773;50.806;8.776;2023-03-30T03:42:42;10.20;;;4.32;;
78484;SDS011;67773;50.806;8.776;2023-03-30T03:45:07;12.27;;;4.53;;
78484;SDS011;67773;50.806;8.776;2023-03-30T03:47:33;9.13;;;4.50;;
78484;SDS011;67773;50.806;8.776;2023-03-30T03:49:59;6.50;;;4.28;;
78484;SDS011;67773;50.806;8.776;2023-03-30T03:52:30;9.85;;;3.97;;
78484;SDS011;67773;50.806;8.776;2023-03-30T03:54:56;7.45;;;3.42;;
78484;SDS011;67773;50.806;8.776;2023-03-30T03:57:21;8.20;;;4.00;;
78484;SDS011;67773;50.806;8.776;2023-03-30T03:59:48;6.55;;;3.15;;
78484;SDS011;67773;50.806;8.776;2023-03-30T04:02:13;5.65;;;3.20;;
78484;SDS011;67773;50.806;8.776;2023-03-30T04:04:39;6.80;;;2.80;;
78484;SDS011;67773;50.806;8.776;2023-03-30T04:07:04;5.43;;;2.90;;
78484;SDS011;67773;50.806;8.776;2023-03-30T04:09:30;8.48;;;2.85;;
78484;SDS011;67773;50.806;8.776;2023-03-30T04:11:55;7.90;;;3.00;;
78484;SDS011;67773;50.806;8.776;2023-03-30T04:14:21;5.63;;;3.27;;
78484;SDS011;67773;50.806;8.776;2023-03-30T04:16:46;7.47;;;3.63;;
78484;SDS011;67773;50.806;8.776;2023-03-30T04:19:12;8.07;;;3.55;;
78484;SDS011;67773;50.806;8.776;2023-03-30T04:21:39;7.97;;;3.83;;
78484;SDS011;67773;50.806;8.776;2023-03-30T04:24:06;10.02;;;3.80;;
78484;SDS011;67773;50.806;8.776;2023-03-30T04:26:36;10.23;;;3.75;;
78484;SDS011;67773;50.806;8.776;2023-03-30T04:29:01;9.48;;;3.60;;
78484;SDS011;67773;50.806;8.776;2023-03-30T04:31:28;6.60;;;3.78;;
78484;SDS011;67773;50.806;8.776;2023-03-30T04:33:58;9.00;;;4.40;;
78484;SDS011;67773;50.806;8.776;2023-03-30T04:36:26;5.68;;;3.50;;
78484;SDS011;67773;50.806;8.776;2023-03-30T04:38:53;13.32;;;3.95;;
78484;SDS011;67773;50.806;8.776;2023-03-30T04:41:29;9.00;;;4.00;;
78484;SDS011;67773;50.806;8.776;2023-03-30T04:46:23;6.78;;;3.50;;
78484;SDS011;67773;50.806;8.776;2023-03-30T04:48:48;9.67;;;3.60;;
78484;SDS011;67773;50.806;8.776;2023-03-30T04:51:13;8.90;;;4.30;;
78484;SDS011;67773;50.806;8.776;2023-03-30T04:53:39;10.13;;;4.10;;
78484;SDS011;67773;50.806;8.776;2023-03-30T04:56:04;10.57;;;3.88;;
78484;SDS011;67773;50.806;8.776;2023-03-30T04:58:30;9.77;;;4.18;;
78484;SDS011;67773;50.806;8.776;2023-03-30T05:00:55;12.07;;;4.23;;
78484;SDS011;67773;50.806;8.776;2023-03-30T05:03:21;7.73;;;3.43;;
78484;SDS011;67773;50.806;8.776;2023-03-30T05:05:46;5.67;;;3.30;;
78484;SDS011;67773;50.806;8.776;2023-03-30T05:08:11;9.20;;;3.87;;
78484;SDS011;67773;50.806;8.776;2023-03-30T05:10:37;8.18;;;3.40;;
78484;SDS011;67773;50.806;8.776;2023-03-30T05:13:02;7.70;;;3.47;;
78484;SDS011;67773;50.806;8.776;2023-03-30T05:15:27;10.80;;;4.30;;
78484;SDS011;67773;50.806;8.776;2023-03-30T05:17:53;7.03;;;3.70;;
78484;SDS011;67773;50.806;8.776;2023-03-30T05:20:23;11.95;;;5.70;;
78484;SDS011;67773;50.806;8.776;2023-03-30T05:22:49;8.27;;;4.47;;
78484;SDS011;67773;50.806;8.776;2023-03-30T05:25:14;8.55;;;4.03;;
78484;SDS011;67773;50.806;8.776;2023-03-30T05:27:40;6.18;;;3.38;;
78484;SDS011;67773;50.806;8.776;2023-03-30T05:30:05;6.73;;;3.23;;
78484;SDS011;67773;50.806;8.776;2023-03-30T05:32:32;7.32;;;3.58;;
78484;SDS011;67773;50.806;8.776;2023-03-30T05:34:57;7.60;;;3.30;;
78484;SDS011;67773;50.806;8.776;2023-03-30T05:37:22;6.27;;;3.27;;
78484;SDS011;67773;50.806;8.776;2023-03-30T05:39:48;7.10;;;4.20;;
78484;SDS011;67773;50.806;8.776;2023-03-30T05:42:13;6.93;;;3.23;;
78484;SDS011;67773;50.806;8.776;2023-03-30T05:44:38;7.83;;;4.00;;
78484;SDS011;67773;50.806;8.776;2023-03-30T05:47:04;16.83;;;7.10;;
78484;SDS011;67773;50.806;8.776;2023-03-30T05:49:29;12.57;;;4.17;;
78484;SDS011;67773;50.806;8.776;2023-03-30T05:51:56;7.45;;;3.70;;
78484;SDS011;67773;50.806;8.776;2023-03-30T05:54:21;11.53;;;4.23;;
78484;SDS011;67773;50.806;8.776;2023-03-30T05:56:47;12.20;;;5.07;;
78484;SDS011;67773;50.806;8.776;2023-03-30T05:59:12;10.40;;;3.73;;
78484;SDS011;67773;50.806;8.776;2023-03-30T06:01:37;8.57;;;4.38;;
78484;SDS011;67773;50.806;8.776;2023-03-30T06:04:03;8.05;;;4.28;;
78484;SDS011;67773;50.806;8.776;2023-03-30T06:06:29;17.25;;;4.78;;
78484;SDS011;67773;50.806;8.776;2023-03-30T06:08:55;8.55;;;4.00;;
78484;SDS011;67773;50.806;8.776;2023-03-30T06:11:20;9.50;;;4.40;;
78484;SDS011;67773;50.806;8.776;2023-03-30T06:13:45;11.93;;;4.30;;
78484;SDS011;67773;50.806;8.776;2023-03-30T06:16:11;9.88;;;4.13;;
78484;SDS011;67773;50.806;8.776;2023-03-30T06:18:36;15.50;;;4.80;;
78484;SDS011;67773;50.806;8.776;2023-03-30T06:21:03;10.45;;;4.72;;
78484;SDS011;67773;50.806;8.776;2023-03-30T06:23:33;11.43;;;5.18;;
78484;SDS011;67773;50.806;8.776;2023-03-30T06:25:59;8.32;;;3.95;;
78484;SDS011;67773;50.806;8.776;2023-03-30T06:28:25;11.93;;;5.07;;
78484;SDS011;67773;50.806;8.776;2023-03-30T06:30:51;11.88;;;6.40;;
78484;SDS011;67773;50.806;8.776;2023-03-30T06:33:17;12.65;;;4.85;;
78484;SDS011;67773;50.806;8.776;2023-03-30T06:35:47;9.90;;;4.45;;
78484;SDS011;67773;50.806;8.776;2023-03-30T06:38:14;10.73;;;5.05;;
78484;SDS011;67773;50.806;8.776;2023-03-30T06:40:40;11.27;;;4.28;;
78484;SDS011;67773;50.806;8.776;2023-03-30T06:43:05;11.05;;;4.65;;
78484;SDS011;67773;50.806;8.776;2023-03-30T06:45:31;14.27;;;4.85;;
78484;SDS011;67773;50.806;8.776;2023-03-30T06:47:57;17.08;;;6.35;;
78484;SDS011;67773;50.806;8.776;2023-03-30T06:50:22;19.65;;;7.57;;
78484;SDS011;67773;50.806;8.776;2023-03-30T06:52:48;9.38;;;4.70;;
78484;SDS011;67773;50.806;8.776;2023-03-30T06:55:13;7.60;;;4.45;;
78484;SDS011;67773;50.806;8.776;2023-03-30T06:57:38;13.73;;;5.00;;
78484;SDS011;67773;50.806;8.776;2023-03-30T07:00:04;8.90;;;4.95;;
78484;SDS011;67773;50.806;8.776;2023-03-30T07:02:37;7.75;;;4.10;;
78484;SDS011;67773;50.806;8.776;2023-03-30T07:05:02;11.30;;;4.00;;
78484;SDS011;67773;50.806;8.776;2023-03-30T07:07:29;9.32;;;4.18;;
78484;SDS011;67773;50.806;8.776;2023-03-30T07:09:55;14.47;;;5.30;;
78484;SDS011;67773;50.806;8.776;2023-03-30T07:12:20;7.93;;;4.17;;
78484;SDS011;67773;50.806;8.776;2023-03-30T07:14:45;11.00;;;4.67;;
78484;SDS011;67773;50.806;8.776;2023-03-30T07:17:11;13.68;;;4.63;;
78484;SDS011;67773;50.806;8.776;2023-03-30T07:19:36;9.27;;;5.20;;
78484;SDS011;67773;50.806;8.776;2023-03-30T07:22:02;9.93;;;4.80;;
78484;SDS011;67773;50.806;8.776;2023-03-30T07:24:28;11.20;;;4.95;;
78484;SDS011;67773;50.806;8.776;2023-03-30T07:26:55;10.82;;;5.35;;
78484;SDS011;67773;50.806;8.776;2023-03-30T07:29:21;10.48;;;4.93;;
78484;SDS011;67773;50.806;8.776;2023-03-30T07:31:46;12.23;;;4.95;;
78484;SDS011;67773;50.806;8.776;2023-03-30T07:34:12;11.88;;;4.90;;
78484;SDS011;67773;50.806;8.776;2023-03-30T07:36:37;13.57;;;4.70;;
78484;SDS011;67773;50.806;8.776;2023-03-30T07:39:02;11.40;;;4.40;;
78484;SDS011;67773;50.806;8.776;2023-03-30T07:41:28;7.68;;;4.43;;
78484;SDS011;67773;50.806;8.776;2023-03-30T07:43:53;5.90;;;3.70;;
78484;SDS011;67773;50.806;8.776;2023-03-30T07:46:19;8.57;;;4.30;;
78484;SDS011;67773;50.806;8.776;2023-03-30T07:48:44;10.88;;;3.92;;
78484;SDS011;67773;50.806;8.776;2023-03-30T07:51:10;8.38;;;4.07;;
78484;SDS011;67773;50.806;8.776;2023-03-30T07:53:37;8.90;;;4.32;;
78484;SDS011;67773;50.806;8.776;2023-03-30T07:56:03;8.95;;;4.00;;
78484;SDS011;67773;50.806;8.776;2023-03-30T07:58:29;9.77;;;4.22;;
78484;SDS011;67773;50.806;8.776;2023-03-30T08:00:55;5.93;;;3.47;;
78484;SDS011;67773;50.806;8.776;2023-03-30T08:03:23;9.48;;;4.13;;
78484;SDS011;67773;50.806;8.776;2023-03-30T08:05:52;10.18;;;4.00;;
78484;SDS011;67773;50.806;8.776;2023-03-30T08:08:23;10.27;;;5.50;;
78484;SDS011;67773;50.806;8.776;2023-03-30T08:10:48;10.35;;;3.70;;
78484;SDS011;67773;50.806;8.776;2023-03-30T08:13:14;7.78;;;3.60;;
78484;SDS011;67773;50.806;8.776;2023-03-30T08:15:40;10.25;;;4.22;;
78484;SDS011;67773;50.806;8.776;2023-03-30T08:18:06;10.27;;;4.10;;
78484;SDS011;67773;50.806;8.776;2023-03-30T08:20:35;11.23;;;3.85;;
78484;SDS011;67773;50.806;8.776;2023-03-30T08:23:02;7.53;;;3.42;;
78484;SDS011;67773;50.806;8.776;2023-03-30T08:25:28;9.27;;;3.50;;
78484;SDS011;67773;50.806;8.776;2023-03-30T08:27:53;14.68;;;3.20;;
78484;SDS011;67773;50.806;8.776;2023-03-30T08:30:20;7.35;;;3.72;;
78484;SDS011;67773;50.806;8.776;2023-03-30T08:32:45;7.22;;;2.80;;
78484;SDS011;67773;50.806;8.776;2023-03-30T08:35:12;8.70;;;2.92;;
78484;SDS011;67773;50.806;8.776;2023-03-30T08:37:37;5.90;;;2.58;;
78484;SDS011;67773;50.806;8.776;2023-03-30T08:40:03;7.35;;;3.03;;
78484;SDS011;67773;50.806;8.776;2023-03-30T08:45:23;4.35;;;2.20;;
78484;SDS011;67773;50.806;8.776;2023-03-30T08:47:51;6.70;;;2.38;;
78484;SDS011;67773;50.806;8.776;2023-03-30T08:50:28;7.85;;;2.35;;
78484;SDS011;67773;50.806;8.776;2023-03-30T08:52:56;5.53;;;2.17;;
78484;SDS011;67773;50.806;8.776;2023-03-30T08:55:28;4.85;;;2.33;;
78484;SDS011;67773;50.806;8.776;2023-03-30T08:58:02;5.05;;;2.58;;
78484;SDS011;67773;50.806;8.776;2023-03-30T09:03:17;5.78;;;2.30;;
78484;SDS011;67773;50.806;8.776;2023-03-30T09:05:53;6.75;;;2.20;;
78484;SDS011;67773;50.806;8.776;2023-03-30T09:08:24;6.93;;;2.00;;
78484;SDS011;67773;50.806;8.776;2023-03-30T09:10:57;6.70;;;2.47;;
78484;SDS011;67773;50.806;8.776;2023-03-30T09:13:25;5.57;;;2.40;;
78484;SDS011;67773;50.806;8.776;2023-03-30T09:15:56;7.13;;;2.13;;
78484;SDS011;67773;50.806;8.776;2023-03-30T09:18:33;6.28;;;2.72;;
78484;SDS011;67773;50.806;8.776;2023-03-30T09:21:02;4.57;;;2.30;;
78484;SDS011;67773;50.806;8.776;2023-03-30T09:23:30;6.15;;;2.10;;
78484;SDS011;67773;50.806;8.776;2023-03-30T09:28:37;7.53;;;3.22;;
78484;SDS011;67773;50.806;8.776;2023-03-30T09:34:05;4.82;;;2.08;;
78484;SDS011;67773;50.806;8.776;2023-03-30T09:39:25;4.10;;;2.00;;
78484;SDS011;67773;50.806;8.776;2023-03-30T09:44:52;5.53;;;1.95;;
78484;SDS011;67773;50.806;8.776;2023-03-30T09:47:33;6.13;;;2.35;;
78484;SDS011;67773;50.806;8.776;2023-03-30T09:50:03;4.93;;;1.95;;
78484;SDS011;67773;50.806;8.776;2023-03-30T09:52:32;5.88;;;1.85;;
78484;SDS011;67773;50.806;8.776;2023-03-30T09:57:46;5.00;;;2.20;;
78484;SDS011;67773;50.806;8.776;2023-03-30T10:00:29;5.40;;;1.50;;
78484;SDS011;67773;50.806;8.776;2023-03-30T10:02:59;3.47;;;2.03;;
78484;SDS011;67773;50.806;8.776;2023-03-30T10:05:26;5.93;;;1.95;;
78484;SDS011;67773;50.806;8.776;2023-03-30T10:07:53;4.38;;;1.67;;
78484;SDS011;67773;50.806;8.776;2023-03-30T10:12:50;4.90;;;1.88;;
78484;SDS011;67773;50.806;8.776;2023-03-30T10:15:19;3.88;;;1.40;;
78484;SDS011;67773;50.806;8.776;2023-03-30T10:17:50;4.65;;;1.40;;
78484;SDS011;67773;50.806;8.776;2023-03-30T10:20:22;4.78;;;1.65;;
78484;SDS011;67773;50.806;8.776;2023-03-30T10:22:53;5.35;;;1.60;;
78484;SDS011;67773;50.806;8.776;2023-03-30T10:25:23;2.22;;;1.00;;
78484;SDS011;67773;50.806;8.776;2023-03-30T10:27:54;4.45;;;1.35;;
78484;SDS011;67773;50.806;8.776;2023-03-30T10:30:22;3.35;;;1.35;;
78484;SDS011;67773;50.806;8.776;2023-03-30T10:32:50;5.82;;;1.67;;
78484;SDS011;67773;50.806;8.776;2023-03-30T10:35:29;5.18;;;1.42;;
78484;SDS011;67773;50.806;8.776;2023-03-30T10:37:58;6.75;;;1.48;;
78484;SDS011;67773;50.806;8.776;2023-03-30T10:40:35;3.80;;;1.35;;
78484;SDS011;67773;50.806;8.776;2023-03-30T10:43:05;4.43;;;1.00;;
78484;SDS011;67773;50.806;8.776;2023-03-30T10:45:48;3.85;;;1.17;;
78484;SDS011;67773;50.806;8.776;2023-03-30T10:53:50;4.03;;;2.05;;
78484;SDS011;67773;50.806;8.776;2023-03-30T11:07:56;0.43;;;0.30;;
78484;SDS011;67773;50.806;8.776;2023-03-30T11:10:27;0.55;;;0.28;;
78484;SDS011;67773;50.806;8.776;2023-03-30T11:13:05;0.70;;;0.30;;
78484;SDS011;67773;50.806;8.776;2023-03-30T11:23:46;1.60;;;0.50;;
78484;SDS011;67773;50.806;8.776;2023-03-30T11:26:39;2.55;;;0.70;;
78484;SDS011;67773;50.806;8.776;2023-03-30T11:29:12;4.45;;;0.95;;
78484;SDS011;67773;50.806;8.776;2023-03-30T11:31:57;4.70;;;1.40;;
78484;SDS011;67773;50.806;8.776;2023-03-30T11:34:34;2.75;;;0.98;;
78484;SDS011;67773;50.806;8.776;2023-03-30T11:37:11;2.90;;;0.80;;
78484;SDS011;67773;50.806;8.776;2023-03-30T11:42:44;1.73;;;0.52;;
78484;SDS011;67773;50.806;8.776;2023-03-30T11:56:53;1.23;;;0.40;;
78484;SDS011;67773;50.806;8.776;2023-03-30T11:59:35;1.52;;;0.32;;
78484;SDS011;67773;50.806;8.776;2023-03-30T12:02:09;1.27;;;0.57;;
78484;SDS011;67773;50.806;8.776;2023-03-30T12:10:17;0.75;;;0.30;;
78484;SDS011;67773;50.806;8.776;2023-03-30T12:12:48;0.70;;;0.28;;
78484;SDS011;67773;50.806;8.776;2023-03-30T12:18:10;1.27;;;0.38;;
78484;SDS011;67773;50.806;8.776;2023-03-30T12:20:44;0.35;;;0.20;;
78484;SDS011;67773;50.806;8.776;2023-03-30T12:23:20;1.30;;;0.30;;
78484;SDS011;67773;50.806;8.776;2023-03-30T12:31:20;0.80;;;0.40;;
78484;SDS011;67773;50.806;8.776;2023-03-30T12:39:03;0.80;;;0.20;;
78484;SDS011;67773;50.806;8.776;2023-03-30T12:41:42;0.60;;;0.20;;
78484;SDS011;67773;50.806;8.776;2023-03-30T12:50:04;1.10;;;0.50;;
78484;SDS011;67773;50.806;8.776;2023-03-30T12:55:59;0.52;;;0.43;;
78484;SDS011;67773;50.806;8.776;2023-03-30T12:58:38;2.53;;;0.43;;
78484;SDS011;67773;50.806;8.776;2023-03-30T13:04:24;0.90;;;0.32;;
78484;SDS011;67773;50.806;8.776;2023-03-30T13:06:57;1.20;;;0.20;;
78484;SDS011;67773;50.806;8.776;2023-03-30T13:19:28;2.58;;;0.68;;
78484;SDS011;67773;50.806;8.776;2023-03-30T13:27:42;1.35;;;0.50;;
78484;SDS011;67773;50.806;8.776;2023-03-30T13:40:37;2.03;;;0.80;;
78484;SDS011;67773;50.806;8.776;2023-03-30T13:43:08;1.20;;;0.35;;
78484;SDS011;67773;50.806;8.776;2023-03-30T13:51:19;2.60;;;0.60;;
78484;SDS011;67773;50.806;8.776;2023-03-30T13:53:54;1.83;;;0.40;;
78484;SDS011;67773;50.806;8.776;2023-03-30T13:56:24;2.65;;;0.40;;
78484;SDS011;67773;50.806;8.776;2023-03-30T13:59:05;2.15;;;0.50;;
78484;SDS011;67773;50.806;8.776;2023-03-30T14:01:34;1.55;;;0.40;;
78484;SDS011;67773;50.806;8.776;2023-03-30T14:04:01;1.63;;;0.30;;
78484;SDS011;67773;50.806;8.776;2023-03-30T14:06:31;2.05;;;0.35;;
78484;SDS011;67773;50.806;8.776;2023-03-30T14:11:39;1.30;;;0.43;;
78484;SDS011;67773;50.806;8.776;2023-03-30T14:14:14;1.27;;;0.40;;
78484;SDS011;67773;50.806;8.776;2023-03-30T14:16:46;1.17;;;0.40;;
78484;SDS011;67773;50.806;8.776;2023-03-30T14:22:00;1.58;;;0.35;;
78484;SDS011;67773;50.806;8.776;2023-03-30T14:24:33;1.02;;;0.20;;
78484;SDS011;67773;50.806;8.776;2023-03-30T14:27:04;0.25;;;0.15;;
78484;SDS011;67773;50.806;8.776;2023-03-30T14:29:47;0.70;;;0.40;;
78484;SDS011;67773;50.806;8.776;2023-03-30T14:32:14;6.70;;;3.20;;
78484;SDS011;67773;50.806;8.776;2023-03-30T14:34:47;6.50;;;3.05;;
78484;SDS011;67773;50.806;8.776;2023-03-30T14:37:14;2.85;;;0.80;;
78484;SDS011;67773;50.806;8.776;2023-03-30T14:39:50;1.77;;;0.57;;
78484;SDS011;67773;50.806;8.776;2023-03-30T14:44:49;1.27;;;0.32;;
78484;SDS011;67773;50.806;8.776;2023-03-30T14:47:18;1.27;;;0.35;;
78484;SDS011;67773;50.806;8.776;2023-03-30T14:49:46;1.13;;;0.40;;
78484;SDS011;67773;50.806;8.776;2023-03-30T14:54:41;2.10;;;0.50;;
78484;SDS011;67773;50.806;8.776;2023-03-30T14:57:09;1.60;;;0.52;;
78484;SDS011;67773;50.806;8.776;2023-03-30T14:59:37;2.05;;;0.43;;
78484;SDS011;67773;50.806;8.776;2023-03-30T15:02:14;3.40;;;0.75;;
78484;SDS011;67773;50.806;8.776;2023-03-30T15:04:44;1.77;;;0.38;;
78484;SDS011;67773;50.806;8.776;2023-03-30T15:07:12;1.10;;;0.50;;
78484;SDS011;67773;50.806;8.776;2023-03-30T15:09:40;3.72;;;0.82;;
78484;SDS011;67773;50.806;8.776;2023-03-30T15:12:06;3.22;;;0.52;;
78484;SDS011;67773;50.806;8.776;2023-03-30T15:14:35;3.42;;;0.70;;
78484;SDS011;67773;50.806;8.776;2023-03-30T15:17:08;2.70;;;0.50;;
78484;SDS011;67773;50.806;8.776;2023-03-30T15:19:37;1.42;;;0.50;;
78484;SDS011;67773;50.806;8.776;2023-03-30T15:22:04;2.88;;;0.82;;
78484;SDS011;67773;50.806;8.776;2023-03-30T15:24:36;1.40;;;0.40;;
78484;SDS011;67773;50.806;8.776;2023-03-30T15:27:04;2.00;;;0.50;;
78484;SDS011;67773;50.806;8.776;2023-03-30T15:29:32;0.70;;;0.40;;
78484;SDS011;67773;50.806;8.776;2023-03-30T15:34:31;2.53;;;0.60;;
78484;SDS011;67773;50.806;8.776;2023-03-30T15:36:57;2.80;;;0.45;;
78484;SDS011;67773;50.806;8.776;2023-03-30T15:39:24;1.10;;;0.43;;
78484;SDS011;67773;50.806;8.776;2023-03-30T15:42:06;2.67;;;1.15;;
78484;SDS011;67773;50.806;8.776;2023-03-30T15:44:37;2.22;;;0.80;;
78484;SDS011;67773;50.806;8.776;2023-03-30T15:47:17;2.42;;;0.70;;
78484;SDS011;67773;50.806;8.776;2023-03-30T15:49:48;2.63;;;0.60;;
78484;SDS011;67773;50.806;8.776;2023-03-30T15:55:16;3.00;;;0.73;;
78484;SDS011;67773;50.806;8.776;2023-03-30T15:57:45;2.42;;;0.70;;
78484;SDS011;67773;50.806;8.776;2023-03-30T16:00:13;3.47;;;1.05;;
78484;SDS011;67773;50.806;8.776;2023-03-30T16:02:46;3.08;;;0.75;;
78484;SDS011;67773;50.806;8.776;2023-03-30T16:05:18;4.30;;;0.80;;
78484;SDS011;67773;50.806;8.776;2023-03-30T16:07:45;5.22;;;0.70;;
78484;SDS011;67773;50.806;8.776;2023-03-30T16:10:14;1.95;;;0.60;;
78484;SDS011;67773;50.806;8.776;2023-03-30T16:12:43;7.55;;;2.60;;
78484;SDS011;67773;50.806;8.776;2023-03-30T16:15:22;4.53;;;0.95;;
78484;SDS011;67773;50.806;8.776;2023-03-30T16:17:49;5.55;;;1.60;;
78484;SDS011;67773;50.806;8.776;2023-03-30T16:20:16;4.72;;;0.90;;
78484;SDS011;67773;50.806;8.776;2023-03-30T16:22:46;2.45;;;0.73;;
78484;SDS011;67773;50.806;8.776;2023-03-30T16:25:12;7.57;;;1.90;;
78484;SDS011;67773;50.806;8.776;2023-03-30T16:27:38;3.60;;;0.77;;
78484;SDS011;67773;50.806;8.776;2023-03-30T16:30:18;3.40;;;0.90;;
78484;SDS011;67773;50.806;8.776;2023-03-30T16:32:44;3.53;;;0.98;;
78484;SDS011;67773;50.806;8.776;2023-03-30T16:35:09;3.75;;;0.80;;
78484;SDS011;67773;50.806;8.776;2023-03-30T16:37:35;2.75;;;0.50;;
78484;SDS011;67773;50.806;8.776;2023-03-30T16:40:00;1.80;;;0.60;;
78484;SDS011;67773;50.806;8.776;2023-03-30T16:42:26;1.52;;;0.50;;
78484;SDS011;67773;50.806;8.776;2023-03-30T16:44:52;1.93;;;0.53;;
78484;SDS011;67773;50.806;8.776;2023-03-30T16:47:18;3.30;;;0.88;;
78484;SDS011;67773;50.806;8.776;2023-03-30T16:49:44;3.50;;;0.70;;
78484;SDS011;67773;50.806;8.776;2023-03-30T16:52:10;8.27;;;4.80;;
78484;SDS011;67773;50.806;8.776;2023-03-30T16:54:35;11.50;;;7.40;;
78484;SDS011;67773;50.806;8.776;2023-03-30T16:57:01;8.40;;;4.83;;
78484;SDS011;67773;50.806;8.776;2023-03-30T16:59:27;17.08;;;9.13;;
78484;SDS011;67773;50.806;8.776;2023-03-30T17:01:54;8.75;;;4.93;;
78484;SDS011;67773;50.806;8.776;2023-03-30T17:04:20;19.80;;;9.57;;
78484;SDS011;67773;50.806;8.776;2023-03-30T17:06:45;16.67;;;9.32;;
78484;SDS011;67773;50.806;8.776;2023-03-30T17:09:12;13.57;;;4.95;;
78484;SDS011;67773;50.806;8.776;2023-03-30T17:11:39;10.85;;;7.47;;
78484;SDS011;67773;50.806;8.776;2023-03-30T17:14:04;15.80;;;10.45;;
78484;SDS011;67773;50.806;8.776;2023-03-30T17:16:30;5.07;;;2.80;;
78484;SDS011;67773;50.806;8.776;2023-03-30T17:18:55;5.28;;;2.20;;
78484;SDS011;67773;50.806;8.776;2023-03-30T17:21:21;5.15;;;1.95;;
78484;SDS011;67773;50.806;8.776;2023-03-30T17:23:47;5.45;;;1.23;;
78484;SDS011;67773;50.806;8.776;2023-03-30T17:26:13;6.32;;;3.45;;
78484;SDS011;67773;50.806;8.776;2023-03-30T17:28:39;4.15;;;2.35;;
78484;SDS011;67773;50.806;8.776;2023-03-30T17:31:06;2.60;;;1.20;;
78484;SDS011;67773;50.806;8.776;2023-03-30T17:33:38;3.08;;;0.98;;
78484;SDS011;67773;50.806;8.776;2023-03-30T17:36:06;4.50;;;1.10;;
78484;SDS011;67773;50.806;8.776;2023-03-30T17:38:36;2.45;;;0.90;;
78484;SDS011;67773;50.806;8.776;2023-03-30T17:41:02;3.13;;;0.95;;